Edgard, Louisiana
Current Conditions -  °F | °C
As of 3:35 PM on Thursday 23 Oct 2014 (Local Time) from K1L0 Reporting Station
Clear Clear  
Wind Chill:   Ceiling: Unl
Heat Index: 12°   Visibility: 10mi
Dew Point: -10°   Wind: 8mph
Humidity: 37%   Direction: 350°N
Pressure: 30.04"   Gusts: NA
Location:  30.04°N, 90.56°W
Report Text: K1L0 232035Z AUTO 35007KT 10SM CLR M11/M23 A3004 RMK AO2 T11131235
Loading
Personal Weather Stations






























Interactive Weather Map
Tropical Storm Tracking
New forecast layout! Learn more

10-Day Weather Forecast

Advertisements
Track Severe Weather on mobile